sensor_id;sensor_type;location;lat;lon;timestamp;pressure;altitude;pressure_sealevel;temperature;humidity
17525;BME280;40431;52.198;9.902;2023-06-14T00:01:54;100780.28;;;18.09;59.37
17525;BME280;40431;52.198;9.902;2023-06-14T00:04:21;100780.84;;;18.03;59.42
17525;BME280;40431;52.198;9.902;2023-06-14T00:06:50;100783.72;;;18.01;59.42
17525;BME280;40431;52.198;9.902;2023-06-14T00:09:18;100787.16;;;17.94;60.41
17525;BME280;40431;52.198;9.902;2023-06-14T00:11:45;100790.13;;;17.91;61.18
17525;BME280;40431;52.198;9.902;2023-06-14T00:14:12;100798.63;;;17.88;60.61
17525;BME280;40431;52.198;9.902;2023-06-14T00:16:39;100799.16;;;17.81;60.91
17525;BME280;40431;52.198;9.902;2023-06-14T00:19:07;100802.47;;;17.75;61.29
17525;BME280;40431;52.198;9.902;2023-06-14T00:21:35;100807.75;;;17.67;61.55
17525;BME280;40431;52.198;9.902;2023-06-14T00:24:05;100806.16;;;17.64;61.78
17525;BME280;40431;52.198;9.902;2023-06-14T00:26:31;100804.25;;;17.65;62.70
17525;BME280;40431;52.198;9.902;2023-06-14T00:28:59;100807.28;;;17.62;62.32
17525;BME280;40431;52.198;9.902;2023-06-14T00:31:25;100804.78;;;17.59;62.84
17525;BME280;40431;52.198;9.902;2023-06-14T00:33:51;100807.06;;;17.53;62.54
17525;BME280;40431;52.198;9.902;2023-06-14T00:36:18;100808.59;;;17.46;62.93
17525;BME280;40431;52.198;9.902;2023-06-14T00:38:44;100805.38;;;17.41;63.16
17525;BME280;40431;52.198;9.902;2023-06-14T00:41:11;100797.34;;;17.28;63.87
17525;BME280;40431;52.198;9.902;2023-06-14T00:43:37;100802.75;;;17.18;64.43
17525;BME280;40431;52.198;9.902;2023-06-14T00:46:05;100794.03;;;17.13;64.71
17525;BME280;40431;52.198;9.902;2023-06-14T00:48:31;100800.91;;;17.08;64.67
17525;BME280;40431;52.198;9.902;2023-06-14T00:51:00;100800.56;;;17.01;64.86
17525;BME280;40431;52.198;9.902;2023-06-14T00:53:29;100802.81;;;16.96;65.08
17525;BME280;40431;52.198;9.902;2023-06-14T00:55:56;100800.22;;;16.94;65.67
17525;BME280;40431;52.198;9.902;2023-06-14T00:58:22;100806.81;;;16.92;65.88
17525;BME280;40431;52.198;9.902;2023-06-14T01:00:49;100804.06;;;16.80;65.92
17525;BME280;40431;52.198;9.902;2023-06-14T01:03:17;100808.81;;;16.78;65.45
17525;BME280;40431;52.198;9.902;2023-06-14T01:05:48;100811.81;;;16.75;65.36
17525;BME280;40431;52.198;9.902;2023-06-14T01:08:24;100810.31;;;16.71;65.53
17525;BME280;40431;52.198;9.902;2023-06-14T01:10:56;100808.81;;;16.67;65.60
17525;BME280;40431;52.198;9.902;2023-06-14T01:13:29;100807.47;;;16.61;66.12
17525;BME280;40431;52.198;9.902;2023-06-14T01:15:58;100814.19;;;16.57;66.06
17525;BME280;40431;52.198;9.902;2023-06-14T01:18:27;100813.06;;;16.48;66.32
17525;BME280;40431;52.198;9.902;2023-06-14T01:20:55;100812.56;;;16.43;66.68
17525;BME280;40431;52.198;9.902;2023-06-14T01:23:23;100816.34;;;16.42;66.91
17525;BME280;40431;52.198;9.902;2023-06-14T01:25:50;100808.47;;;16.38;67.77
17525;BME280;40431;52.198;9.902;2023-06-14T01:28:19;100813.97;;;16.38;67.66
17525;BME280;40431;52.198;9.902;2023-06-14T01:30:47;100816.56;;;16.39;67.84
17525;BME280;40431;52.198;9.902;2023-06-14T01:33:16;100814.09;;;16.36;67.28
17525;BME280;40431;52.198;9.902;2023-06-14T01:35:46;100811.84;;;16.30;66.98
17525;BME280;40431;52.198;9.902;2023-06-14T01:38:13;100815.22;;;16.22;67.67
17525;BME280;40431;52.198;9.902;2023-06-14T01:40:42;100812.84;;;16.17;68.46
17525;BME280;40431;52.198;9.902;2023-06-14T01:43:11;100814.84;;;16.15;67.87
17525;BME280;40431;52.198;9.902;2023-06-14T01:45:41;100820.53;;;16.12;67.90
17525;BME280;40431;52.198;9.902;2023-06-14T01:48:08;100822.56;;;16.10;69.02
17525;BME280;40431;52.198;9.902;2023-06-14T01:50:35;100820.03;;;16.07;68.91
17525;BME280;40431;52.198;9.902;2023-06-14T01:53:02;100823.78;;;16.06;68.03
17525;BME280;40431;52.198;9.902;2023-06-14T01:55:28;100819.19;;;16.07;68.57
17525;BME280;40431;52.198;9.902;2023-06-14T01:58:04;100824.53;;;16.08;69.13
17525;BME280;40431;52.198;9.902;2023-06-14T02:00:30;100820.81;;;16.09;69.22
17525;BME280;40431;52.198;9.902;2023-06-14T02:02:57;100814.34;;;16.10;68.79
17525;BME280;40431;52.198;9.902;2023-06-14T02:05:23;100815.81;;;16.03;69.06
17525;BME280;40431;52.198;9.902;2023-06-14T02:07:50;100813.34;;;16.00;69.59
17525;BME280;40431;52.198;9.902;2023-06-14T02:10:16;100811.97;;;15.94;68.61
17525;BME280;40431;52.198;9.902;2023-06-14T02:12:43;100816.06;;;16.00;69.33
17525;BME280;40431;52.198;9.902;2023-06-14T02:15:11;100819.53;;;16.02;70.04
17525;BME280;40431;52.198;9.902;2023-06-14T02:17:41;100821.53;;;16.00;69.68
17525;BME280;40431;52.198;9.902;2023-06-14T02:20:08;100820.03;;;15.96;68.78
17525;BME280;40431;52.198;9.902;2023-06-14T02:22:35;100824.63;;;15.95;70.24
17525;BME280;40431;52.198;9.902;2023-06-14T02:25:02;100815.06;;;15.90;68.65
17525;BME280;40431;52.198;9.902;2023-06-14T02:27:28;100816.28;;;15.85;69.14
17525;BME280;40431;52.198;9.902;2023-06-14T02:29:54;100814.78;;;15.81;69.23
17525;BME280;40431;52.198;9.902;2023-06-14T02:32:22;100817.75;;;15.78;69.87
17525;BME280;40431;52.198;9.902;2023-06-14T02:34:50;100813.63;;;15.73;70.24
17525;BME280;40431;52.198;9.902;2023-06-14T02:37:16;100827.41;;;15.71;71.09
17525;BME280;40431;52.198;9.902;2023-06-14T02:39:43;100830.41;;;15.68;70.39
17525;BME280;40431;52.198;9.902;2023-06-14T02:42:09;100829.03;;;15.62;71.31
17525;BME280;40431;52.198;9.902;2023-06-14T02:44:36;100839.31;;;15.59;71.12
17525;BME280;40431;52.198;9.902;2023-06-14T02:47:02;100840.88;;;15.50;69.87
17525;BME280;40431;52.198;9.902;2023-06-14T02:49:31;100838.13;;;15.39;69.97
17525;BME280;40431;52.198;9.902;2023-06-14T02:51:59;100847.69;;;15.33;70.49
17525;BME280;40431;52.198;9.902;2023-06-14T02:54:25;100841.69;;;15.28;72.01
17525;BME280;40431;52.198;9.902;2023-06-14T02:56:52;100847.34;;;15.25;72.79
17525;BME280;40431;52.198;9.902;2023-06-14T02:59:18;100853.94;;;15.22;72.84
17525;BME280;40431;52.198;9.902;2023-06-14T03:01:46;100855.03;;;15.19;73.63
17525;BME280;40431;52.198;9.902;2023-06-14T03:04:13;100851.44;;;15.19;73.16
17525;BME280;40431;52.198;9.902;2023-06-14T03:06:40;100864.25;;;15.18;73.89
17525;BME280;40431;52.198;9.902;2023-06-14T03:09:09;100853.19;;;15.20;73.79
17525;BME280;40431;52.198;9.902;2023-06-14T03:11:35;100856.78;;;15.20;73.60
17525;BME280;40431;52.198;9.902;2023-06-14T03:14:02;100861.91;;;15.25;74.14
17525;BME280;40431;52.198;9.902;2023-06-14T03:16:29;100861.78;;;15.27;73.16
17525;BME280;40431;52.198;9.902;2023-06-14T03:18:56;100870.50;;;15.32;73.89
17525;BME280;40431;52.198;9.902;2023-06-14T03:21:23;100859.78;;;15.29;73.18
17525;BME280;40431;52.198;9.902;2023-06-14T03:23:51;100869.75;;;15.30;73.92
17525;BME280;40431;52.198;9.902;2023-06-14T03:26:18;100871.63;;;15.29;73.34
17525;BME280;40431;52.198;9.902;2023-06-14T03:28:45;100872.47;;;15.30;74.37
17525;BME280;40431;52.198;9.902;2023-06-14T03:31:11;100873.56;;;15.27;74.34
17525;BME280;40431;52.198;9.902;2023-06-14T03:33:38;100881.91;;;15.26;75.51
17525;BME280;40431;52.198;9.902;2023-06-14T03:36:04;100870.22;;;15.24;74.80
17525;BME280;40431;52.198;9.902;2023-06-14T03:38:31;100883.53;;;15.28;75.91
17525;BME280;40431;52.198;9.902;2023-06-14T03:40:59;100877.94;;;15.30;73.63
17525;BME280;40431;52.198;9.902;2023-06-14T03:43:25;100887.13;;;15.29;73.75
17525;BME280;40431;52.198;9.902;2023-06-14T03:45:51;100879.69;;;15.31;73.81
17525;BME280;40431;52.198;9.902;2023-06-14T03:48:18;100885.69;;;15.36;75.06
17525;BME280;40431;52.198;9.902;2023-06-14T03:50:44;100893.63;;;15.39;74.94
17525;BME280;40431;52.198;9.902;2023-06-14T03:53:11;100894.94;;;15.46;73.99
17525;BME280;40431;52.198;9.902;2023-06-14T03:55:37;100898.66;;;15.57;74.11
17525;BME280;40431;52.198;9.902;2023-06-14T03:58:05;100905.31;;;15.65;73.66
17525;BME280;40431;52.198;9.902;2023-06-14T04:00:32;100903.94;;;15.71;73.02
17525;BME280;40431;52.198;9.902;2023-06-14T04:02:58;100901.22;;;15.71;71.61
17525;BME280;40431;52.198;9.902;2023-06-14T04:05:25;100917.28;;;15.76;71.98
17525;BME280;40431;52.198;9.902;2023-06-14T04:07:52;100903.50;;;15.77;72.33
17525;BME280;40431;52.198;9.902;2023-06-14T04:10:21;100902.16;;;15.83;71.99
17525;BME280;40431;52.198;9.902;2023-06-14T04:12:48;100897.25;;;15.75;70.39
17525;BME280;40431;52.198;9.902;2023-06-14T04:15:16;100898.47;;;15.71;71.41
17525;BME280;40431;52.198;9.902;2023-06-14T04:17:42;100903.09;;;15.70;71.87
17525;BME280;40431;52.198;9.902;2023-06-14T04:20:09;100904.94;;;15.70;71.98
17525;BME280;40431;52.198;9.902;2023-06-14T04:22:36;100910.31;;;15.72;71.81
17525;BME280;40431;52.198;9.902;2023-06-14T04:25:02;100907.44;;;15.73;71.71
17525;BME280;40431;52.198;9.902;2023-06-14T04:27:31;100906.34;;;15.76;71.95
17525;BME280;40431;52.198;9.902;2023-06-14T04:29:59;100912.91;;;15.73;71.89
17525;BME280;40431;52.198;9.902;2023-06-14T04:32:29;100911.69;;;15.77;72.18
17525;BME280;40431;52.198;9.902;2023-06-14T04:34:58;100916.59;;;15.85;71.89
17525;BME280;40431;52.198;9.902;2023-06-14T04:37:27;100912.38;;;15.92;72.39
17525;BME280;40431;52.198;9.902;2023-06-14T04:39:54;100916.75;;;15.95;71.92
17525;BME280;40431;52.198;9.902;2023-06-14T04:42:21;100923.47;;;16.02;71.91
17525;BME280;40431;52.198;9.902;2023-06-14T04:44:50;100935.22;;;16.15;73.24
17525;BME280;40431;52.198;9.902;2023-06-14T04:47:17;100922.03;;;16.20;72.21
17525;BME280;40431;52.198;9.902;2023-06-14T04:49:44;100928.59;;;16.18;72.31
17525;BME280;40431;52.198;9.902;2023-06-14T04:52:11;100938.56;;;16.19;71.51
17525;BME280;40431;52.198;9.902;2023-06-14T04:54:38;100930.00;;;16.24;72.12
17525;BME280;40431;52.198;9.902;2023-06-14T04:57:06;100927.28;;;16.24;72.58
17525;BME280;40431;52.198;9.902;2023-06-14T04:59:33;100921.78;;;16.24;73.10
17525;BME280;40431;52.198;9.902;2023-06-14T05:02:00;100923.25;;;16.16;71.60
17525;BME280;40431;52.198;9.902;2023-06-14T05:04:27;100932.50;;;16.27;72.57
17525;BME280;40431;52.198;9.902;2023-06-14T05:06:55;100935.47;;;16.35;73.00
17525;BME280;40431;52.198;9.902;2023-06-14T05:09:21;100938.97;;;16.37;73.18
17525;BME280;40431;52.198;9.902;2023-06-14T05:11:48;100942.44;;;16.39;73.29
17525;BME280;40431;52.198;9.902;2023-06-14T05:14:16;100937.75;;;16.52;72.98
17525;BME280;40431;52.198;9.902;2023-06-14T05:16:42;100940.00;;;16.59;72.00
17525;BME280;40431;52.198;9.902;2023-06-14T05:19:09;100947.34;;;16.58;71.15
17525;BME280;40431;52.198;9.902;2023-06-14T05:21:36;100937.50;;;16.56;70.86
17525;BME280;40431;52.198;9.902;2023-06-14T05:24:04;100938.38;;;16.45;72.56
17525;BME280;40431;52.198;9.902;2023-06-14T05:26:30;100942.84;;;16.57;72.29
17525;BME280;40431;52.198;9.902;2023-06-14T05:28:57;100945.22;;;16.62;72.26
17525;BME280;40431;52.198;9.902;2023-06-14T05:31:25;100949.47;;;16.66;72.21
17525;BME280;40431;52.198;9.902;2023-06-14T05:33:52;100941.13;;;16.67;71.64
17525;BME280;40431;52.198;9.902;2023-06-14T05:36:19;100948.72;;;16.75;72.37
17525;BME280;40431;52.198;9.902;2023-06-14T05:38:46;100948.47;;;16.78;72.43
17525;BME280;40431;52.198;9.902;2023-06-14T05:41:14;100953.34;;;16.86;72.76
17525;BME280;40431;52.198;9.902;2023-06-14T05:43:41;100951.22;;;16.90;72.62
17525;BME280;40431;52.198;9.902;2023-06-14T05:46:07;100949.84;;;16.73;71.46
17525;BME280;40431;52.198;9.902;2023-06-14T05:48:33;100951.22;;;16.78;72.97
17525;BME280;40431;52.198;9.902;2023-06-14T05:51:00;100961.28;;;16.89;73.70
17525;BME280;40431;52.198;9.902;2023-06-14T05:53:26;100958.97;;;17.07;72.33
17525;BME280;40431;52.198;9.902;2023-06-14T05:55:53;100959.91;;;17.17;70.85
17525;BME280;40431;52.198;9.902;2023-06-14T05:58:21;100953.69;;;17.27;71.69
17525;BME280;40431;52.198;9.902;2023-06-14T06:00:48;100955.88;;;17.44;70.69
17525;BME280;40431;52.198;9.902;2023-06-14T06:03:14;100959.34;;;17.58;68.85
17525;BME280;40431;52.198;9.902;2023-06-14T06:05:40;100959.94;;;17.61;69.35
17525;BME280;40431;52.198;9.902;2023-06-14T06:08:07;100962.09;;;17.46;68.66
17525;BME280;40431;52.198;9.902;2023-06-14T06:10:33;100955.16;;;17.42;71.40
17525;BME280;40431;52.198;9.902;2023-06-14T06:12:59;100959.22;;;17.59;69.85
17525;BME280;40431;52.198;9.902;2023-06-14T06:15:27;100957.81;;;17.65;71.15
17525;BME280;40431;52.198;9.902;2023-06-14T06:17:53;100964.22;;;17.86;71.05
17525;BME280;40431;52.198;9.902;2023-06-14T06:20:20;100953.81;;;18.01;69.07
17525;BME280;40431;52.198;9.902;2023-06-14T06:22:52;100956.84;;;17.98;67.86
17525;BME280;40431;52.198;9.902;2023-06-14T06:25:19;100965.16;;;18.08;68.38
17525;BME280;40431;52.198;9.902;2023-06-14T06:27:45;100963.34;;;18.18;67.38
17525;BME280;40431;52.198;9.902;2023-06-14T06:30:12;100963.09;;;18.22;67.01
17525;BME280;40431;52.198;9.902;2023-06-14T06:32:41;100970.09;;;18.35;68.03
17525;BME280;40431;52.198;9.902;2023-06-14T06:35:07;100970.16;;;18.45;67.77
17525;BME280;40431;52.198;9.902;2023-06-14T06:37:36;100976.59;;;18.56;67.84
17525;BME280;40431;52.198;9.902;2023-06-14T06:40:02;100972.31;;;18.63;67.33
17525;BME280;40431;52.198;9.902;2023-06-14T06:42:31;100975.91;;;18.63;66.76
17525;BME280;40431;52.198;9.902;2023-06-14T06:44:57;100970.28;;;18.65;66.01
17525;BME280;40431;52.198;9.902;2023-06-14T06:47:24;100981.44;;;18.73;65.64
17525;BME280;40431;52.198;9.902;2023-06-14T06:49:52;100972.81;;;18.78;65.74
17525;BME280;40431;52.198;9.902;2023-06-14T06:52:18;100972.88;;;18.66;64.96
17525;BME280;40431;52.198;9.902;2023-06-14T06:54:45;100977.69;;;18.74;65.82
17525;BME280;40431;52.198;9.902;2023-06-14T06:57:11;100991.91;;;18.79;65.75
17525;BME280;40431;52.198;9.902;2023-06-14T06:59:38;100986.53;;;18.99;65.20
17525;BME280;40431;52.198;9.902;2023-06-14T07:02:05;100991.06;;;19.10;64.78
17525;BME280;40431;52.198;9.902;2023-06-14T07:04:32;100990.63;;;19.14;63.37
17525;BME280;40431;52.198;9.902;2023-06-14T07:06:59;100998.44;;;19.09;63.15
17525;BME280;40431;52.198;9.902;2023-06-14T07:09:26;100985.59;;;19.19;62.76
17525;BME280;40431;52.198;9.902;2023-06-14T07:11:52;100990.22;;;19.19;63.17
17525;BME280;40431;52.198;9.902;2023-06-14T07:14:19;101003.38;;;19.15;60.61
17525;BME280;40431;52.198;9.902;2023-06-14T07:16:48;100996.47;;;18.90;61.83
17525;BME280;40431;52.198;9.902;2023-06-14T07:19:14;101001.28;;;18.98;62.35
17525;BME280;40431;52.198;9.902;2023-06-14T07:21:41;100997.56;;;19.09;60.91
17525;BME280;40431;52.198;9.902;2023-06-14T07:24:08;101011.09;;;19.31;62.19
17525;BME280;40431;52.198;9.902;2023-06-14T07:26:35;101009.25;;;19.42;59.88
17525;BME280;40431;52.198;9.902;2023-06-14T07:29:01;101006.38;;;19.53;60.46
17525;BME280;40431;52.198;9.902;2023-06-14T07:31:28;101005.97;;;19.58;60.28
17525;BME280;40431;52.198;9.902;2023-06-14T07:33:55;101010.91;;;19.64;59.62
17525;BME280;40431;52.198;9.902;2023-06-14T07:36:21;101002.31;;;19.38;59.91
17525;BME280;40431;52.198;9.902;2023-06-14T07:38:48;100995.91;;;19.27;60.41
17525;BME280;40431;52.198;9.902;2023-06-14T07:41:16;100995.88;;;19.17;61.40
17525;BME280;40431;52.198;9.902;2023-06-14T07:43:42;100994.88;;;19.18;60.46
17525;BME280;40431;52.198;9.902;2023-06-14T07:46:08;100989.75;;;18.83;63.18
17525;BME280;40431;52.198;9.902;2023-06-14T07:48:35;100999.69;;;19.05;63.59
17525;BME280;40431;52.198;9.902;2023-06-14T07:51:01;100989.84;;;19.02;62.83
17525;BME280;40431;52.198;9.902;2023-06-14T07:53:28;100996.59;;;18.89;63.05
17525;BME280;40431;52.198;9.902;2023-06-14T07:55:56;100993.78;;;19.00;61.72
17525;BME280;40431;52.198;9.902;2023-06-14T07:58:23;100995.41;;;18.81;63.45
17525;BME280;40431;52.198;9.902;2023-06-14T08:00:50;100987.72;;;18.85;62.92
17525;BME280;40431;52.198;9.902;2023-06-14T08:03:16;101002.66;;;19.13;63.20
17525;BME280;40431;52.198;9.902;2023-06-14T08:05:43;100999.94;;;19.33;61.32
17525;BME280;40431;52.198;9.902;2023-06-14T08:08:09;101004.22;;;19.57;61.15
17525;BME280;40431;52.198;9.902;2023-06-14T08:10:36;101007.31;;;19.73;59.52
17525;BME280;40431;52.198;9.902;2023-06-14T08:13:02;100997.56;;;19.69;59.51
17525;BME280;40431;52.198;9.902;2023-06-14T08:15:30;101000.97;;;19.82;60.56
17525;BME280;40431;52.198;9.902;2023-06-14T08:17:56;101000.25;;;20.00;60.08
17525;BME280;40431;52.198;9.902;2023-06-14T08:20:24;101006.75;;;20.28;59.99
17525;BME280;40431;52.198;9.902;2023-06-14T08:22:51;100998.06;;;20.23;58.60
17525;BME280;40431;52.198;9.902;2023-06-14T08:25:20;100998.97;;;20.24;54.91
17525;BME280;40431;52.198;9.902;2023-06-14T08:27:47;100998.38;;;20.00;56.64
17525;BME280;40431;52.198;9.902;2023-06-14T08:30:14;101001.66;;;19.75;56.70
17525;BME280;40431;52.198;9.902;2023-06-14T08:32:43;101003.00;;;19.90;59.07
17525;BME280;40431;52.198;9.902;2023-06-14T08:35:10;101015.47;;;20.04;57.79
17525;BME280;40431;52.198;9.902;2023-06-14T08:37:38;101014.88;;;20.30;57.95
17525;BME280;40431;52.198;9.902;2023-06-14T08:40:07;101009.63;;;20.56;57.28
17525;BME280;40431;52.198;9.902;2023-06-14T08:42:40;101009.78;;;20.74;56.88
17525;BME280;40431;52.198;9.902;2023-06-14T08:45:08;101009.28;;;20.89;56.48
17525;BME280;40431;52.198;9.902;2023-06-14T08:47:35;101010.22;;;21.07;57.28
17525;BME280;40431;52.198;9.902;2023-06-14T08:50:04;101005.03;;;21.04;52.51
17525;BME280;40431;52.198;9.902;2023-06-14T08:52:33;100993.38;;;20.63;53.95
17525;BME280;40431;52.198;9.902;2023-06-14T08:55:06;100994.25;;;20.53;53.99
17525;BME280;40431;52.198;9.902;2023-06-14T08:57:35;100995.44;;;20.31;54.33
17525;BME280;40431;52.198;9.902;2023-06-14T09:00:04;101000.97;;;20.22;54.81
17525;BME280;40431;52.198;9.902;2023-06-14T09:02:37;101004.41;;;20.43;54.60
17525;BME280;40431;52.198;9.902;2023-06-14T09:05:05;101015.41;;;20.73;54.53
17525;BME280;40431;52.198;9.902;2023-06-14T09:07:32;101016.25;;;20.93;54.15
17525;BME280;40431;52.198;9.902;2023-06-14T09:10:07;101009.41;;;20.97;53.77
17525;BME280;40431;52.198;9.902;2023-06-14T09:12:33;101000.16;;;20.88;52.22
17525;BME280;40431;52.198;9.902;2023-06-14T09:15:00;101004.91;;;20.96;53.34
17525;BME280;40431;52.198;9.902;2023-06-14T09:17:32;101009.63;;;21.13;53.78
17525;BME280;40431;52.198;9.902;2023-06-14T09:19:58;101019.16;;;21.29;52.38
17525;BME280;40431;52.198;9.902;2023-06-14T09:22:29;101028.47;;;21.46;52.59
17525;BME280;40431;52.198;9.902;2023-06-14T09:24:56;101014.75;;;21.36;52.37
17525;BME280;40431;52.198;9.902;2023-06-14T09:27:22;101014.44;;;21.11;51.48
17525;BME280;40431;52.198;9.902;2023-06-14T09:29:48;101013.50;;;21.21;51.88
17525;BME280;40431;52.198;9.902;2023-06-14T09:32:15;101008.78;;;21.03;52.62
17525;BME280;40431;52.198;9.902;2023-06-14T09:34:41;101014.03;;;20.96;52.42
17525;BME280;40431;52.198;9.902;2023-06-14T09:37:08;101023.06;;;21.26;53.99
17525;BME280;40431;52.198;9.902;2023-06-14T09:39:49;101023.97;;;21.55;53.07
17525;BME280;40431;52.198;9.902;2023-06-14T09:42:16;101007.38;;;21.27;51.17
17525;BME280;40431;52.198;9.902;2023-06-14T09:44:44;101011.66;;;21.39;53.04
17525;BME280;40431;52.198;9.902;2023-06-14T09:47:13;101007.03;;;21.40;50.67
17525;BME280;40431;52.198;9.902;2023-06-14T09:49:40;100998.59;;;21.41;49.63
17525;BME280;40431;52.198;9.902;2023-06-14T09:52:09;101002.31;;;21.60;50.92
17525;BME280;40431;52.198;9.902;2023-06-14T09:54:41;101002.78;;;21.73;51.62
17525;BME280;40431;52.198;9.902;2023-06-14T09:57:09;100997.13;;;21.47;49.91
17525;BME280;40431;52.198;9.902;2023-06-14T09:59:37;101001.94;;;21.73;52.01
17525;BME280;40431;52.198;9.902;2023-06-14T10:02:10;100996.66;;;21.97;49.86
17525;BME280;40431;52.198;9.902;2023-06-14T10:04:39;101004.78;;;22.17;50.03
17525;BME280;40431;52.198;9.902;2023-06-14T10:07:07;100995.69;;;22.43;48.89
17525;BME280;40431;52.198;9.902;2023-06-14T10:09:34;100987.81;;;22.30;49.51
17525;BME280;40431;52.198;9.902;2023-06-14T10:12:03;100993.09;;;22.23;49.88
17525;BME280;40431;52.198;9.902;2023-06-14T10:14:29;100982.00;;;21.97;48.54
17525;BME280;40431;52.198;9.902;2023-06-14T10:17:03;100983.00;;;22.14;50.11
17525;BME280;40431;52.198;9.902;2023-06-14T10:19:35;100983.63;;;22.26;48.59
17525;BME280;40431;52.198;9.902;2023-06-14T10:22:06;100992.59;;;22.28;48.12
17525;BME280;40431;52.198;9.902;2023-06-14T10:24:38;100991.50;;;22.39;48.50
17525;BME280;40431;52.198;9.902;2023-06-14T10:27:08;100980.78;;;22.54;48.46
17525;BME280;40431;52.198;9.902;2023-06-14T10:30:01;100982.22;;;22.66;47.88
17525;BME280;40431;52.198;9.902;2023-06-14T10:32:28;100978.34;;;22.59;47.94
17525;BME280;40431;52.198;9.902;2023-06-14T10:34:56;100989.72;;;22.74;49.11
17525;BME280;40431;52.198;9.902;2023-06-14T10:37:23;100983.69;;;22.78;48.13
17525;BME280;40431;52.198;9.902;2023-06-14T10:39:50;100976.38;;;22.69;47.79
17525;BME280;40431;52.198;9.902;2023-06-14T10:42:17;100966.06;;;22.79;46.27
17525;BME280;40431;52.198;9.902;2023-06-14T10:44:45;100981.75;;;23.05;48.43
17525;BME280;40431;52.198;9.902;2023-06-14T10:47:30;100972.63;;;23.47;46.98
17525;BME280;40431;52.198;9.902;2023-06-14T10:50:03;100964.88;;;23.67;46.37
17525;BME280;40431;52.198;9.902;2023-06-14T10:52:32;100962.13;;;23.76;46.64
17525;BME280;40431;52.198;9.902;2023-06-14T10:55:08;100954.34;;;23.79;46.62
17525;BME280;40431;52.198;9.902;2023-06-14T10:57:38;100953.31;;;23.72;46.03
17525;BME280;40431;52.198;9.902;2023-06-14T11:00:06;100951.41;;;23.73;46.64
17525;BME280;40431;52.198;9.902;2023-06-14T11:05:48;100960.56;;;23.73;47.16
17525;BME280;40431;52.198;9.902;2023-06-14T11:08:40;100952.78;;;23.77;46.32
17525;BME280;40431;52.198;9.902;2023-06-14T11:11:12;100946.22;;;23.78;46.80
17525;BME280;40431;52.198;9.902;2023-06-14T11:13:42;100954.06;;;23.99;47.27
17525;BME280;40431;52.198;9.902;2023-06-14T11:16:13;100958.56;;;24.16;45.61
17525;BME280;40431;52.198;9.902;2023-06-14T11:18:40;100957.88;;;24.23;45.05
17525;BME280;40431;52.198;9.902;2023-06-14T11:21:07;100949.84;;;23.78;45.66
17525;BME280;40431;52.198;9.902;2023-06-14T11:23:34;100943.56;;;23.60;45.52
17525;BME280;40431;52.198;9.902;2023-06-14T11:26:00;100943.22;;;23.46;46.30
17525;BME280;40431;52.198;9.902;2023-06-14T11:28:35;100945.13;;;23.54;46.91
17525;BME280;40431;52.198;9.902;2023-06-14T11:31:03;100933.94;;;23.72;46.66
17525;BME280;40431;52.198;9.902;2023-06-14T11:33:30;100938.09;;;23.84;46.53
17525;BME280;40431;52.198;9.902;2023-06-14T11:35:57;100937.91;;;23.78;46.31
17525;BME280;40431;52.198;9.902;2023-06-14T11:38:25;100936.53;;;23.82;46.11
17525;BME280;40431;52.198;9.902;2023-06-14T11:40:51;100925.28;;;23.83;46.27
17525;BME280;40431;52.198;9.902;2023-06-14T11:43:18;100929.59;;;23.86;46.33
17525;BME280;40431;52.198;9.902;2023-06-14T11:45:47;100923.88;;;23.79;46.96
17525;BME280;40431;52.198;9.902;2023-06-14T11:48:15;100936.00;;;23.70;46.98
17525;BME280;40431;52.198;9.902;2023-06-14T11:50:42;100926.31;;;23.74;46.57
17525;BME280;40431;52.198;9.902;2023-06-14T11:53:08;100932.72;;;23.83;47.09
17525;BME280;40431;52.198;9.902;2023-06-14T11:55:36;100928.72;;;23.69;46.73
17525;BME280;40431;52.198;9.902;2023-06-14T11:58:03;100924.91;;;23.54;46.70
17525;BME280;40431;52.198;9.902;2023-06-14T12:00:30;100939.44;;;23.64;48.32
17525;BME280;40431;52.198;9.902;2023-06-14T12:02:56;100937.72;;;23.79;46.85
17525;BME280;40431;52.198;9.902;2023-06-14T12:05:25;100932.91;;;23.81;47.13
17525;BME280;40431;52.198;9.902;2023-06-14T12:07:58;100929.06;;;23.74;46.46
17525;BME280;40431;52.198;9.902;2023-06-14T12:10:25;100927.50;;;23.72;46.67
17525;BME280;40431;52.198;9.902;2023-06-14T12:12:56;100926.66;;;23.71;46.71
17525;BME280;40431;52.198;9.902;2023-06-14T12:15:23;100920.28;;;23.87;46.20
17525;BME280;40431;52.198;9.902;2023-06-14T12:17:50;100923.25;;;23.94;46.19
17525;BME280;40431;52.198;9.902;2023-06-14T12:20:17;100925.47;;;23.82;46.82
17525;BME280;40431;52.198;9.902;2023-06-14T12:22:50;100921.88;;;23.90;47.38
17525;BME280;40431;52.198;9.902;2023-06-14T12:25:24;100929.59;;;23.86;46.71
17525;BME280;40431;52.198;9.902;2023-06-14T12:27:53;100915.41;;;23.81;47.61
17525;BME280;40431;52.198;9.902;2023-06-14T12:30:19;100915.97;;;24.01;46.50
17525;BME280;40431;52.198;9.902;2023-06-14T12:32:45;100913.53;;;24.14;46.49
17525;BME280;40431;52.198;9.902;2023-06-14T12:35:12;100918.84;;;24.49;46.80
17525;BME280;40431;52.198;9.902;2023-06-14T12:37:38;100905.66;;;24.67;46.58
17525;BME280;40431;52.198;9.902;2023-06-14T12:40:07;100906.44;;;25.01;45.99
17525;BME280;40431;52.198;9.902;2023-06-14T12:42:33;100914.34;;;25.12;45.68
17525;BME280;40431;52.198;9.902;2023-06-14T12:45:00;100922.34;;;25.07;43.57
17525;BME280;40431;52.198;9.902;2023-06-14T12:47:28;100911.28;;;24.99;44.32
17525;BME280;40431;52.198;9.902;2023-06-14T12:49:54;100909.06;;;24.86;44.34
17525;BME280;40431;52.198;9.902;2023-06-14T12:52:21;100904.81;;;24.67;44.60
17525;BME280;40431;52.198;9.902;2023-06-14T12:54:47;100918.69;;;24.59;45.35
17525;BME280;40431;52.198;9.902;2023-06-14T12:57:15;100909.84;;;24.63;45.74